Time;durP1;ratioP1;P1;durP2;ratioP2;P2;SDS_P1;SDS_P2;PMS_P1;PMS_P2;Temp;Humidity;BMP_temperature;BMP_pressure;BME280_temperature;BME280_humidity;BME280_pressure;Samples;Min_cycle;Max_cycle;Signal;HPM_P1;HPM_P2
2023/03/20 00:01:14;;;;;;;11.85;3.92;;;;;;;;;;5029929;28;20049;-76
2023/03/20 00:03:40;;;;;;;8.80;3.85;;;;;;;;;;5043732;28;20135;-76
2023/03/20 00:06:12;;;;;;;15.27;3.88;;;;;;;;;;5015003;28;20136;-77
2023/03/20 00:08:38;;;;;;;16.30;4.50;;;;;;;;;;5030977;28;20045;-76
2023/03/20 00:11:05;;;;;;;11.52;4.95;;;;;;;;;;5017663;28;20409;-76
2023/03/20 00:13:31;;;;;;;12.68;4.57;;;;;;;;;;5012739;28;20045;-76
2023/03/20 00:15:57;;;;;;;13.35;5.60;;;;;;;;;;5017650;28;20088;-76
2023/03/20 00:18:25;;;;;;;12.48;5.25;;;;;;;;;;5025813;28;20455;-76
2023/03/20 00:20:52;;;;;;;12.40;5.32;;;;;;;;;;5026179;28;21089;-76
2023/03/20 00:23:18;;;;;;;15.02;5.75;;;;;;;;;;5012960;28;20045;-76
2023/03/20 00:25:46;;;;;;;11.27;4.88;;;;;;;;;;5028227;28;20045;-76
2023/03/20 00:28:36;;;;;;;14.43;4.90;;;;;;;;;;5028483;28;20384;-76
2023/03/20 00:31:03;;;;;;;13.45;5.03;;;;;;;;;;5030282;28;20073;-76
2023/03/20 00:33:30;;;;;;;14.30;5.05;;;;;;;;;;5030367;28;20083;-76
2023/03/20 00:35:57;;;;;;;13.20;5.30;;;;;;;;;;5030863;28;20041;-76
2023/03/20 00:38:24;;;;;;;14.93;5.35;;;;;;;;;;5007996;28;20041;-76
2023/03/20 00:40:51;;;;;;;13.18;6.00;;;;;;;;;;5011003;28;20118;-76
2023/03/20 00:43:17;;;;;;;13.98;6.00;;;;;;;;;;5008272;28;20412;-76
2023/03/20 00:45:44;;;;;;;16.65;5.75;;;;;;;;;;5009592;28;20464;-76
2023/03/20 00:48:14;;;;;;;17.40;5.90;;;;;;;;;;5015940;28;20682;-77
2023/03/20 00:50:40;;;;;;;13.52;6.25;;;;;;;;;;5027654;28;20049;-76
2023/03/20 00:53:09;;;;;;;17.77;6.60;;;;;;;;;;5008801;28;20068;-76
2023/03/20 00:55:35;;;;;;;20.20;7.65;;;;;;;;;;5012006;28;20075;-76
2023/03/20 00:58:02;;;;;;;16.33;6.03;;;;;;;;;;5008447;28;20070;-76
2023/03/20 01:00:41;;;;;;;14.65;6.57;;;;;;;;;;5012715;28;20473;-76
2023/03/20 01:03:12;;;;;;;16.23;6.43;;;;;;;;;;5034629;28;20045;-76
2023/03/20 01:05:38;;;;;;;19.67;7.15;;;;;;;;;;5027730;28;20563;-77
2023/03/20 01:08:15;;;;;;;17.67;6.57;;;;;;;;;;5029638;28;20042;-77
2023/03/20 01:10:41;;;;;;;17.40;6.53;;;;;;;;;;5028202;28;20064;-76
2023/03/20 01:13:13;;;;;;;15.52;6.68;;;;;;;;;;5026091;28;20087;-76
2023/03/20 01:15:39;;;;;;;17.70;6.32;;;;;;;;;;5027281;28;20057;-76
2023/03/20 01:18:05;;;;;;;14.63;5.80;;;;;;;;;;5016471;28;20034;-76
2023/03/20 01:20:31;;;;;;;12.95;5.28;;;;;;;;;;5010445;28;20049;-76
2023/03/20 01:22:57;;;;;;;20.83;5.20;;;;;;;;;;5007582;28;20033;-77
2023/03/20 01:25:24;;;;;;;15.32;5.82;;;;;;;;;;5027687;28;20392;-76
2023/03/20 01:27:51;;;;;;;13.52;5.30;;;;;;;;;;5028941;28;20044;-76
2023/03/20 01:30:22;;;;;;;10.93;4.72;;;;;;;;;;5006302;28;20397;-76
2023/03/20 01:32:48;;;;;;;13.23;4.80;;;;;;;;;;5026779;28;20045;-76
2023/03/20 01:35:15;;;;;;;17.40;5.32;;;;;;;;;;5010078;28;20053;-76
2023/03/20 01:37:42;;;;;;;12.15;5.03;;;;;;;;;;5018792;28;20075;-76
2023/03/20 01:40:31;;;;;;;10.63;4.72;;;;;;;;;;5023395;28;20100;-76
2023/03/20 01:42:57;;;;;;;13.00;5.50;;;;;;;;;;5017008;28;20210;-76
2023/03/20 01:45:26;;;;;;;10.70;5.07;;;;;;;;;;5042391;28;20076;-76
2023/03/20 01:47:52;;;;;;;11.32;5.45;;;;;;;;;;5028673;28;20073;-76
2023/03/20 01:50:21;;;;;;;9.07;4.82;;;;;;;;;;5044303;28;20037;-76
2023/03/20 01:52:49;;;;;;;11.52;5.50;;;;;;;;;;5023218;28;20515;-76
2023/03/20 01:55:15;;;;;;;10.35;4.93;;;;;;;;;;5015269;28;20057;-76
2023/03/20 01:57:41;;;;;;;9.13;5.28;;;;;;;;;;5034519;28;20049;-76
2023/03/20 02:00:13;;;;;;;10.57;4.82;;;;;;;;;;5066273;28;20036;-76
2023/03/20 02:02:39;;;;;;;10.45;4.45;;;;;;;;;;5040845;28;20053;-76
2023/03/20 02:05:08;;;;;;;10.23;4.60;;;;;;;;;;5046934;28;20048;-76
2023/03/20 02:07:34;;;;;;;9.68;5.45;;;;;;;;;;5013789;28;20045;-76
2023/03/20 02:10:02;;;;;;;11.55;5.55;;;;;;;;;;5007556;28;20045;-76
2023/03/20 02:12:28;;;;;;;9.95;5.15;;;;;;;;;;5025722;28;20044;-76
2023/03/20 02:14:55;;;;;;;8.50;4.78;;;;;;;;;;5028117;28;20053;-76
2023/03/20 02:17:21;;;;;;;6.47;5.00;;;;;;;;;;5011594;28;20073;-76
2023/03/20 02:19:47;;;;;;;7.47;4.97;;;;;;;;;;5032544;28;20053;-76
2023/03/20 02:22:45;;;;;;;12.25;5.10;;;;;;;;;;5012283;28;20048;-76
2023/03/20 02:25:24;;;;;;;11.10;5.45;;;;;;;;;;5001739;28;20115;-76
2023/03/20 02:27:50;;;;;;;10.77;5.53;;;;;;;;;;5016862;28;20110;-76
2023/03/20 02:30:16;;;;;;;13.23;5.30;;;;;;;;;;5030599;28;20095;-76
2023/03/20 02:32:57;;;;;;;12.48;5.90;;;;;;;;;;5015443;28;20059;-76
2023/03/20 02:35:44;;;;;;;10.90;6.07;;;;;;;;;;5032453;28;20048;-76
2023/03/20 02:38:10;;;;;;;11.13;6.75;;;;;;;;;;5019931;28;20053;-76
2023/03/20 02:40:39;;;;;;;13.95;6.78;;;;;;;;;;5029681;28;20128;-76
2023/03/20 02:43:14;;;;;;;13.15;7.30;;;;;;;;;;5031627;28;20416;-76
2023/03/20 02:46:03;;;;;;;11.85;7.13;;;;;;;;;;5030973;28;20066;-76
2023/03/20 02:48:32;;;;;;;12.77;7.30;;;;;;;;;;5035180;28;20091;-75
2023/03/20 02:51:01;;;;;;;11.90;7.35;;;;;;;;;;5020773;28;21170;-76
2023/03/20 02:53:33;;;;;;;17.83;8.30;;;;;;;;;;5018313;28;20615;-76
2023/03/20 02:56:07;;;;;;;14.50;7.20;;;;;;;;;;5010410;28;20067;-76
2023/03/20 02:58:35;;;;;;;13.57;7.05;;;;;;;;;;5029334;28;20042;-76
2023/03/20 03:01:06;;;;;;;11.05;5.65;;;;;;;;;;5029367;28;20045;-76
2023/03/20 03:03:34;;;;;;;13.98;5.88;;;;;;;;;;5028680;28;20059;-75
2023/03/20 03:06:10;;;;;;;11.68;5.00;;;;;;;;;;5032983;28;20053;-76
2023/03/20 03:08:39;;;;;;;8.73;5.00;;;;;;;;;;5011233;28;20052;-76
2023/03/20 03:11:07;;;;;;;9.30;5.00;;;;;;;;;;5029898;28;20478;-76
2023/03/20 03:13:36;;;;;;;11.70;5.07;;;;;;;;;;5013269;28;20037;-76
2023/03/20 03:16:15;;;;;;;9.43;4.50;;;;;;;;;;5030306;28;20163;-76
2023/03/20 03:18:42;;;;;;;10.57;4.60;;;;;;;;;;5028949;28;20120;-76
2023/03/20 03:21:09;;;;;;;9.55;5.03;;;;;;;;;;5028181;28;20052;-76
2023/03/20 03:23:43;;;;;;;8.93;4.50;;;;;;;;;;5032791;28;20037;-76
2023/03/20 03:26:10;;;;;;;14.68;5.00;;;;;;;;;;5028788;28;20045;-76
2023/03/20 03:28:47;;;;;;;8.23;4.60;;;;;;;;;;5014427;28;20041;-76
2023/03/20 03:31:15;;;;;;;8.40;5.28;;;;;;;;;;5009626;28;20132;-76
2023/03/20 03:33:44;;;;;;;11.70;5.43;;;;;;;;;;5028253;28;20512;-76
2023/03/20 03:36:22;;;;;;;8.07;4.80;;;;;;;;;;5032197;28;20500;-76
2023/03/20 03:38:55;;;;;;;8.43;5.07;;;;;;;;;;5028206;28;20045;-76
2023/03/20 03:41:31;;;;;;;9.02;5.82;;;;;;;;;;5030729;28;20041;-76
2023/03/20 03:44:05;;;;;;;9.90;5.10;;;;;;;;;;5049147;28;20044;-76
2023/03/20 03:46:34;;;;;;;9.43;5.22;;;;;;;;;;5047145;28;20208;-76
2023/03/20 03:49:02;;;;;;;10.23;5.13;;;;;;;;;;5033732;28;20477;-76
2023/03/20 03:51:30;;;;;;;12.43;5.68;;;;;;;;;;5016138;28;20041;-76
2023/03/20 03:54:01;;;;;;;8.68;5.55;;;;;;;;;;5043466;28;20053;-76
2023/03/20 03:56:29;;;;;;;9.07;5.60;;;;;;;;;;5049391;28;20045;-76
2023/03/20 03:58:59;;;;;;;15.45;5.85;;;;;;;;;;5045207;28;20068;-76
2023/03/20 04:01:26;;;;;;;11.63;6.07;;;;;;;;;;5018685;28;20072;-77
2023/03/20 04:03:55;;;;;;;10.23;6.32;;;;;;;;;;5026530;28;20098;-77
2023/03/20 04:06:21;;;;;;;12.00;6.43;;;;;;;;;;5044657;28;20500;-77
2023/03/20 04:08:47;;;;;;;10.98;7.07;;;;;;;;;;5018701;28;20055;-76
2023/03/20 04:11:18;;;;;;;11.50;6.07;;;;;;;;;;5015182;28;20045;-76
2023/03/20 04:13:45;;;;;;;13.95;6.70;;;;;;;;;;5033137;28;20135;-76
2023/03/20 04:16:13;;;;;;;13.35;6.40;;;;;;;;;;5036975;28;20595;-76
2023/03/20 04:18:39;;;;;;;13.27;7.28;;;;;;;;;;5041628;28;20045;-76
2023/03/20 04:21:05;;;;;;;13.18;7.00;;;;;;;;;;5037691;28;20042;-76
2023/03/20 04:23:32;;;;;;;17.33;7.80;;;;;;;;;;5013067;28;20053;-76
2023/03/20 04:25:58;;;;;;;17.67;8.50;;;;;;;;;;5037832;28;20045;-76
2023/03/20 04:28:24;;;;;;;16.13;7.15;;;;;;;;;;5013156;28;20041;-76
2023/03/20 04:30:54;;;;;;;15.93;7.00;;;;;;;;;;5017572;28;20087;-76
2023/03/20 04:33:20;;;;;;;16.30;8.15;;;;;;;;;;5031462;28;20467;-76
2023/03/20 04:35:46;;;;;;;14.48;7.00;;;;;;;;;;5011224;28;20052;-76
2023/03/20 04:38:13;;;;;;;13.60;7.82;;;;;;;;;;5028729;28;20048;-76
2023/03/20 04:40:39;;;;;;;14.10;8.23;;;;;;;;;;5011983;28;20045;-76
2023/03/20 04:43:05;;;;;;;15.05;9.23;;;;;;;;;;5027612;28;20093;-76
2023/03/20 04:45:31;;;;;;;16.63;10.18;;;;;;;;;;5025877;28;20077;-76
2023/03/20 04:47:57;;;;;;;14.25;9.50;;;;;;;;;;5012417;28;20045;-76
2023/03/20 04:50:23;;;;;;;16.65;9.98;;;;;;;;;;5027691;28;20044;-76
2023/03/20 04:52:49;;;;;;;16.67;10.82;;;;;;;;;;5024411;28;20060;-76
2023/03/20 04:55:15;;;;;;;18.63;10.27;;;;;;;;;;5015055;28;20045;-76
2023/03/20 04:57:41;;;;;;;16.45;9.75;;;;;;;;;;5011093;28;20619;-76
2023/03/20 05:00:07;;;;;;;17.27;9.55;;;;;;;;;;5026534;28;20129;-76
2023/03/20 05:02:34;;;;;;;15.77;9.85;;;;;;;;;;5009719;28;20091;-76
2023/03/20 05:05:00;;;;;;;14.68;9.13;;;;;;;;;;5025610;28;20259;-76
2023/03/20 05:07:26;;;;;;;17.02;10.57;;;;;;;;;;5027104;28;20147;-76
2023/03/20 05:09:52;;;;;;;18.27;10.23;;;;;;;;;;5033611;28;20046;-77
2023/03/20 05:12:18;;;;;;;16.95;9.65;;;;;;;;;;5029565;28;20048;-76
2023/03/20 05:14:44;;;;;;;17.08;8.68;;;;;;;;;;5009824;28;20128;-76
2023/03/20 05:17:10;;;;;;;17.55;9.07;;;;;;;;;;5011740;28;20756;-76
2023/03/20 05:19:37;;;;;;;16.77;9.05;;;;;;;;;;5013831;28;20042;-76
2023/03/20 05:22:03;;;;;;;15.95;8.20;;;;;;;;;;5009735;28;20579;-76
2023/03/20 05:24:30;;;;;;;14.90;8.48;;;;;;;;;;5032099;28;20034;-76
2023/03/20 05:26:56;;;;;;;12.93;8.02;;;;;;;;;;5025863;28;20053;-76
2023/03/20 05:29:22;;;;;;;16.20;8.68;;;;;;;;;;5030847;28;20053;-76
2023/03/20 05:31:48;;;;;;;15.43;9.07;;;;;;;;;;5011051;28;20065;-76
2023/03/20 05:34:15;;;;;;;20.45;8.73;;;;;;;;;;5006835;28;20045;-76
2023/03/20 05:36:41;;;;;;;16.80;9.90;;;;;;;;;;5011204;28;20052;-76
2023/03/20 05:39:07;;;;;;;18.50;10.13;;;;;;;;;;5026413;28;20036;-76
2023/03/20 05:41:33;;;;;;;16.58;10.85;;;;;;;;;;5028699;28;20049;-76
2023/03/20 05:43:59;;;;;;;17.00;9.82;;;;;;;;;;5012759;28;20140;-76
2023/03/20 05:46:25;;;;;;;19.17;10.27;;;;;;;;;;5011310;28;20132;-76
2023/03/20 05:48:51;;;;;;;15.75;9.65;;;;;;;;;;5008425;28;20049;-76
2023/03/20 05:51:17;;;;;;;15.50;10.05;;;;;;;;;;5009315;28;20045;-76
2023/03/20 05:53:43;;;;;;;19.02;10.05;;;;;;;;;;5027818;28;20057;-76
2023/03/20 05:56:09;;;;;;;15.88;8.98;;;;;;;;;;5016355;28;20771;-76
2023/03/20 05:58:35;;;;;;;20.17;9.57;;;;;;;;;;5014071;28;20397;-76
2023/03/20 06:01:01;;;;;;;15.35;8.95;;;;;;;;;;5031282;28;20041;-76
2023/03/20 06:03:27;;;;;;;15.75;9.30;;;;;;;;;;5029728;28;21703;-76
2023/03/20 06:05:54;;;;;;;16.20;8.15;;;;;;;;;;5028906;28;20049;-76
2023/03/20 06:08:20;;;;;;;19.92;10.05;;;;;;;;;;5011370;28;20178;-76
2023/03/20 06:10:46;;;;;;;22.38;14.55;;;;;;;;;;5031855;28;20056;-77
2023/03/20 06:13:12;;;;;;;18.10;8.63;;;;;;;;;;5039521;28;20507;-77
2023/03/20 06:15:38;;;;;;;18.38;8.05;;;;;;;;;;5026228;28;20096;-78
2023/03/20 06:18:04;;;;;;;17.02;8.38;;;;;;;;;;5050388;28;20182;-77
2023/03/20 06:20:30;;;;;;;16.80;8.00;;;;;;;;;;5023418;28;20048;-77
2023/03/20 06:22:56;;;;;;;15.68;8.05;;;;;;;;;;5016619;28;20100;-77
2023/03/20 06:25:22;;;;;;;16.20;8.23;;;;;;;;;;5033134;28;20049;-77
2023/03/20 06:27:48;;;;;;;15.90;8.13;;;;;;;;;;5017786;28;20095;-77
2023/03/20 06:30:15;;;;;;;17.55;8.98;;;;;;;;;;5042029;28;20037;-76
2023/03/20 06:32:41;;;;;;;15.60;9.57;;;;;;;;;;5042145;28;20071;-76
2023/03/20 06:35:08;;;;;;;15.65;9.57;;;;;;;;;;5049448;28;20515;-76
2023/03/20 06:37:35;;;;;;;17.77;9.38;;;;;;;;;;5021243;28;20396;-76
2023/03/20 06:40:02;;;;;;;20.15;9.43;;;;;;;;;;5022007;28;20053;-76
2023/03/20 06:42:28;;;;;;;16.13;9.68;;;;;;;;;;5015731;28;20080;-77
2023/03/20 06:44:55;;;;;;;21.25;10.90;;;;;;;;;;5045878;28;20033;-74
2023/03/20 06:47:21;;;;;;;15.93;9.98;;;;;;;;;;5024549;28;20046;-76
2023/03/20 06:49:47;;;;;;;22.38;10.68;;;;;;;;;;5041195;28;20040;-76
2023/03/20 06:52:17;;;;;;;19.60;10.80;;;;;;;;;;5015004;28;20041;-76
2023/03/20 06:54:43;;;;;;;16.75;10.27;;;;;;;;;;5019546;28;20446;-76
2023/03/20 06:57:10;;;;;;;21.77;9.90;;;;;;;;;;5039448;28;20073;-75
2023/03/20 06:59:36;;;;;;;21.70;10.60;;;;;;;;;;5024346;28;20041;-76
2023/03/20 07:02:02;;;;;;;18.13;11.20;;;;;;;;;;5020748;28;20045;-76
2023/03/20 07:04:28;;;;;;;18.42;11.38;;;;;;;;;;5026132;28;20050;-76
2023/03/20 07:06:54;;;;;;;17.42;9.60;;;;;;;;;;5024526;28;20052;-77
2023/03/20 07:09:23;;;;;;;20.60;9.70;;;;;;;;;;5023657;28;20048;-76
2023/03/20 07:11:50;;;;;;;21.02;11.10;;;;;;;;;;5025271;28;20075;-76
2023/03/20 07:14:16;;;;;;;20.90;11.10;;;;;;;;;;5026080;28;20052;-76
2023/03/20 07:16:42;;;;;;;18.52;11.32;;;;;;;;;;5036165;28;20437;-76
2023/03/20 07:19:08;;;;;;;17.77;10.63;;;;;;;;;;5015288;28;20087;-77
2023/03/20 07:21:35;;;;;;;19.10;10.65;;;;;;;;;;5033739;28;20045;-76
2023/03/20 07:24:01;;;;;;;17.48;10.65;;;;;;;;;;5016244;28;20558;-77
2023/03/20 07:26:27;;;;;;;19.52;11.68;;;;;;;;;;5020341;28;20054;-76
2023/03/20 07:28:54;;;;;;;20.40;11.52;;;;;;;;;;5043455;28;20041;-76
2023/03/20 07:31:21;;;;;;;18.98;11.32;;;;;;;;;;5043438;28;20124;-76
2023/03/20 07:33:47;;;;;;;20.55;10.93;;;;;;;;;;5015987;28;20049;-76
2023/03/20 07:36:13;;;;;;;16.48;10.85;;;;;;;;;;5021808;28;20796;-76
2023/03/20 07:38:39;;;;;;;17.77;10.50;;;;;;;;;;5025525;28;20056;-76
2023/03/20 07:41:05;;;;;;;16.13;9.45;;;;;;;;;;5030421;28;20037;-77
2023/03/20 07:43:31;;;;;;;20.63;11.27;;;;;;;;;;5027752;28;20045;-76
2023/03/20 07:45:57;;;;;;;21.08;11.48;;;;;;;;;;5029300;28;20052;-76
2023/03/20 07:48:23;;;;;;;16.95;10.43;;;;;;;;;;5018039;28;20038;-77
2023/03/20 07:50:49;;;;;;;21.58;11.40;;;;;;;;;;5040594;28;20055;-76
2023/03/20 07:53:15;;;;;;;16.85;10.32;;;;;;;;;;5043196;28;20046;-75
2023/03/20 07:55:43;;;;;;;17.40;10.48;;;;;;;;;;5021456;28;20560;-77
2023/03/20 07:58:09;;;;;;;19.00;10.43;;;;;;;;;;5015869;28;20056;-76
2023/03/20 08:00:35;;;;;;;18.73;9.45;;;;;;;;;;5014749;28;20045;-77
2023/03/20 08:03:01;;;;;;;16.50;10.88;;;;;;;;;;5038407;28;20039;-76
2023/03/20 08:05:27;;;;;;;17.42;10.85;;;;;;;;;;5027941;28;20060;-77
2023/03/20 08:07:53;;;;;;;18.85;11.43;;;;;;;;;;5019442;28;20103;-77
2023/03/20 08:10:19;;;;;;;20.08;11.27;;;;;;;;;;5041111;28;20485;-76
2023/03/20 08:12:46;;;;;;;15.25;9.60;;;;;;;;;;5045771;28;20507;-76
2023/03/20 08:15:12;;;;;;;19.50;9.65;;;;;;;;;;5017373;28;20049;-77
2023/03/20 08:17:41;;;;;;;17.88;10.98;;;;;;;;;;5015876;28;20137;-76
2023/03/20 08:20:07;;;;;;;21.90;10.50;;;;;;;;;;5017769;28;20051;-76
2023/03/20 08:22:33;;;;;;;18.67;11.80;;;;;;;;;;5035414;28;20084;-76
2023/03/20 08:24:59;;;;;;;22.75;10.05;;;;;;;;;;5018419;28;20041;-77
2023/03/20 08:27:25;;;;;;;19.35;10.15;;;;;;;;;;5037155;28;20045;-76
2023/03/20 08:29:52;;;;;;;22.00;10.80;;;;;;;;;;5041312;28;20093;-76
2023/03/20 08:32:18;;;;;;;17.90;10.35;;;;;;;;;;5035986;28;20072;-76
2023/03/20 08:34:47;;;;;;;17.95;10.35;;;;;;;;;;5021591;28;20131;-76
2023/03/20 08:37:14;;;;;;;16.67;10.25;;;;;;;;;;5021383;28;20133;-76
2023/03/20 08:39:40;;;;;;;19.55;10.00;;;;;;;;;;5023128;28;20091;-76
2023/03/20 08:42:06;;;;;;;18.75;9.32;;;;;;;;;;5042643;28;20044;-76
2023/03/20 08:44:32;;;;;;;16.90;10.60;;;;;;;;;;5022816;28;20557;-76
2023/03/20 08:46:58;;;;;;;21.20;10.35;;;;;;;;;;5043256;28;20055;-77
2023/03/20 08:49:24;;;;;;;17.60;9.35;;;;;;;;;;5026572;28;20045;-76
2023/03/20 08:51:50;;;;;;;24.33;10.65;;;;;;;;;;5037982;28;20038;-76
2023/03/20 08:54:19;;;;;;;21.08;9.75;;;;;;;;;;5016337;28;20072;-76
2023/03/20 08:56:46;;;;;;;16.08;9.82;;;;;;;;;;5033335;28;20084;-76
2023/03/20 08:59:12;;;;;;;19.92;10.18;;;;;;;;;;5038432;28;20126;-76
2023/03/20 09:01:38;;;;;;;20.17;10.40;;;;;;;;;;5039250;28;20053;-76
2023/03/20 09:04:07;;;;;;;21.88;10.20;;;;;;;;;;5014824;28;20057;-76
2023/03/20 09:06:36;;;;;;;20.95;11.25;;;;;;;;;;5022562;28;20493;-76
2023/03/20 09:09:02;;;;;;;16.98;10.43;;;;;;;;;;5027431;28;20050;-76
2023/03/20 09:11:28;;;;;;;18.75;9.82;;;;;;;;;;5019741;28;20124;-76
2023/03/20 09:13:54;;;;;;;19.80;10.90;;;;;;;;;;5036586;28;20045;-77
2023/03/20 09:16:20;;;;;;;22.42;9.45;;;;;;;;;;5024834;28;20060;-76
2023/03/20 09:18:46;;;;;;;19.52;8.80;;;;;;;;;;5033310;28;20037;-76
2023/03/20 09:21:12;;;;;;;21.00;9.30;;;;;;;;;;5020453;28;20132;-76
2023/03/20 09:23:41;;;;;;;18.17;8.50;;;;;;;;;;5041102;28;20878;-76
2023/03/20 09:26:07;;;;;;;22.77;7.88;;;;;;;;;;5037146;28;20078;-76
2023/03/20 09:28:34;;;;;;;18.20;7.03;;;;;;;;;;5046670;28;20040;-76
2023/03/20 09:31:00;;;;;;;18.08;6.88;;;;;;;;;;5027621;28;20083;-77
2023/03/20 09:33:26;;;;;;;21.92;6.18;;;;;;;;;;5024655;28;21199;-76
2023/03/20 09:35:52;;;;;;;19.52;5.38;;;;;;;;;;5020411;28;20849;-76
2023/03/20 09:38:19;;;;;;;17.52;5.38;;;;;;;;;;5037512;28;20485;-76
2023/03/20 09:40:50;;;;;;;20.67;6.35;;;;;;;;;;5036677;28;20056;-76
2023/03/20 09:43:25;;;;;;;16.42;5.03;;;;;;;;;;5024124;28;20219;-76
2023/03/20 09:46:10;;;;;;;20.48;5.72;;;;;;;;;;5039672;28;20042;-76
2023/03/20 09:48:41;;;;;;;19.63;5.30;;;;;;;;;;5029769;28;20095;-76
2023/03/20 09:51:17;;;;;;;15.32;4.88;;;;;;;;;;5037076;28;20041;-76
2023/03/20 09:53:53;;;;;;;16.13;4.97;;;;;;;;;;5042480;28;20459;-76
2023/03/20 09:56:24;;;;;;;17.15;4.78;;;;;;;;;;5042865;28;20053;-76
2023/03/20 09:59:01;;;;;;;23.48;5.10;;;;;;;;;;5016307;28;20045;-76
2023/03/20 10:01:30;;;;;;;18.65;5.35;;;;;;;;;;5041998;28;20037;-76
2023/03/20 10:03:58;;;;;;;15.48;5.32;;;;;;;;;;5028550;28;20045;-76
2023/03/20 10:06:24;;;;;;;13.90;5.80;;;;;;;;;;5039310;28;20037;-76
2023/03/20 10:08:50;;;;;;;14.60;4.82;;;;;;;;;;5022967;28;20507;-76
2023/03/20 10:11:16;;;;;;;15.13;4.88;;;;;;;;;;5027373;28;20412;-76
2023/03/20 10:13:52;;;;;;;17.20;5.05;;;;;;;;;;5033439;28;20049;-76
2023/03/20 10:16:27;;;;;;;18.30;5.32;;;;;;;;;;5036973;28;20045;-75
2023/03/20 10:19:01;;;;;;;14.57;4.90;;;;;;;;;;5049970;28;20444;-76
2023/03/20 10:21:33;;;;;;;12.05;4.60;;;;;;;;;;5042723;28;20080;-76
2023/03/20 10:24:02;;;;;;;14.85;4.72;;;;;;;;;;5028011;28;20499;-77
2023/03/20 10:26:29;;;;;;;16.67;4.78;;;;;;;;;;5039813;28;20045;-76
2023/03/20 10:28:56;;;;;;;18.85;5.15;;;;;;;;;;5033610;28;20063;-76
2023/03/20 10:31:30;;;;;;;14.27;4.90;;;;;;;;;;5041132;28;20049;-76
2023/03/20 10:33:59;;;;;;;16.80;5.97;;;;;;;;;;5035560;28;20068;-76
2023/03/20 10:36:34;;;;;;;21.33;5.05;;;;;;;;;;5022958;28;20082;-76
2023/03/20 10:39:20;;;;;;;11.15;4.68;;;;;;;;;;5021138;28;20041;-77
2023/03/20 10:41:51;;;;;;;13.32;5.00;;;;;;;;;;5023086;28;20037;-76
2023/03/20 10:44:22;;;;;;;16.40;4.85;;;;;;;;;;5026532;28;20055;-76
2023/03/20 10:46:51;;;;;;;15.50;5.35;;;;;;;;;;5048262;28;20128;-76
2023/03/20 10:49:20;;;;;;;17.83;4.95;;;;;;;;;;5025707;28;20079;-76
2023/03/20 10:51:48;;;;;;;13.43;5.22;;;;;;;;;;5020384;28;20539;-75
2023/03/20 10:54:26;;;;;;;16.45;6.70;;;;;;;;;;5019372;28;20128;-76
2023/03/20 10:56:55;;;;;;;14.65;5.65;;;;;;;;;;5016003;28;20049;-76
2023/03/20 10:59:24;;;;;;;17.00;5.85;;;;;;;;;;5016776;28;20046;-76
2023/03/20 11:01:50;;;;;;;19.08;5.65;;;;;;;;;;5022964;28;20405;-76
2023/03/20 11:04:16;;;;;;;15.88;6.00;;;;;;;;;;5025152;28;20056;-76
2023/03/20 11:06:54;;;;;;;13.88;6.10;;;;;;;;;;5017192;28;20045;-76
2023/03/20 11:09:23;;;;;;;13.88;5.53;;;;;;;;;;5022183;28;20092;-76
2023/03/20 11:11:52;;;;;;;10.80;5.30;;;;;;;;;;5017098;28;20405;-76
2023/03/20 11:14:21;;;;;;;15.38;5.68;;;;;;;;;;5028025;28;20133;-76
2023/03/20 11:16:49;;;;;;;12.35;5.95;;;;;;;;;;5025468;28;20448;-76
2023/03/20 11:19:16;;;;;;;14.45;5.30;;;;;;;;;;5017973;28;20037;-76
2023/03/20 11:22:05;;;;;;;16.08;6.00;;;;;;;;;;5018462;28;20057;-76
2023/03/20 11:24:45;;;;;;;9.52;5.47;;;;;;;;;;5021031;28;20049;-76
2023/03/20 11:27:14;;;;;;;8.35;4.43;;;;;;;;;;5018395;28;20381;-76
2023/03/20 11:29:41;;;;;;;11.48;4.93;;;;;;;;;;5020731;28;20080;-76
2023/03/20 11:32:16;;;;;;;7.50;5.00;;;;;;;;;;5025783;28;20094;-76
2023/03/20 11:34:42;;;;;;;10.35;5.40;;;;;;;;;;5023104;28;20441;-76
2023/03/20 11:37:22;;;;;;;13.20;6.03;;;;;;;;;;5014707;28;20042;-76
2023/03/20 11:39:58;;;;;;;10.30;5.50;;;;;;;;;;5017268;28;20470;-75
2023/03/20 11:42:26;;;;;;;11.02;6.22;;;;;;;;;;5020467;28;20501;-75
2023/03/20 11:45:03;;;;;;;9.35;5.10;;;;;;;;;;5017018;28;20041;-76
2023/03/20 11:47:32;;;;;;;9.07;5.53;;;;;;;;;;5022207;28;20049;-75
2023/03/20 11:49:59;;;;;;;12.80;5.32;;;;;;;;;;5021822;28;20038;-76
2023/03/20 11:52:28;;;;;;;8.93;5.78;;;;;;;;;;5012619;28;20056;-76
2023/03/20 11:54:56;;;;;;;9.50;5.40;;;;;;;;;;5046303;28;20040;-76
2023/03/20 11:57:43;;;;;;;11.13;6.38;;;;;;;;;;5020577;28;20068;-76
2023/03/20 12:00:12;;;;;;;10.82;5.47;;;;;;;;;;5038439;28;20122;-76
2023/03/20 12:02:40;;;;;;;13.10;5.43;;;;;;;;;;5020441;28;20045;-75
2023/03/20 12:05:25;;;;;;;11.18;5.85;;;;;;;;;;5012750;28;20044;-76
2023/03/20 12:07:52;;;;;;;12.02;6.90;;;;;;;;;;5014802;28;20037;-75
2023/03/20 12:10:20;;;;;;;11.85;6.13;;;;;;;;;;5023478;28;20041;-75
2023/03/20 12:12:49;;;;;;;9.82;6.50;;;;;;;;;;5020091;28;20042;-76
2023/03/20 12:15:26;;;;;;;11.73;6.47;;;;;;;;;;5039654;28;20044;-76
2023/03/20 12:17:57;;;;;;;14.85;6.32;;;;;;;;;;5019193;28;20049;-75
2023/03/20 12:20:32;;;;;;;9.50;6.50;;;;;;;;;;5034498;28;20072;-76
2023/03/20 12:23:02;;;;;;;11.43;6.40;;;;;;;;;;5021545;28;20057;-75
2023/03/20 12:25:31;;;;;;;11.05;6.75;;;;;;;;;;5022761;28;20122;-76
2023/03/20 12:28:03;;;;;;;8.93;6.35;;;;;;;;;;5049160;28;20040;-75
2023/03/20 12:30:52;;;;;;;10.18;6.43;;;;;;;;;;5037821;28;20056;-76
2023/03/20 12:33:29;;;;;;;11.45;6.05;;;;;;;;;;5010668;28;20408;-76
2023/03/20 12:35:57;;;;;;;9.68;7.15;;;;;;;;;;5025268;28;20045;-75
2023/03/20 12:38:23;;;;;;;11.85;6.95;;;;;;;;;;5029499;28;20049;-76
2023/03/20 12:40:51;;;;;;;11.85;6.93;;;;;;;;;;5037293;28;20120;-76
2023/03/20 12:43:27;;;;;;;13.73;7.70;;;;;;;;;;5045909;28;20386;-75
2023/03/20 12:46:12;;;;;;;10.02;6.40;;;;;;;;;;5023391;28;20045;-75
2023/03/20 12:48:49;;;;;;;10.07;6.78;;;;;;;;;;5036640;28;20486;-75
2023/03/20 12:51:34;;;;;;;13.90;7.15;;;;;;;;;;5025369;28;20434;-75
2023/03/20 12:54:00;;;;;;;13.23;8.25;;;;;;;;;;5036035;28;20054;-76
2023/03/20 12:56:35;;;;;;;10.77;6.93;;;;;;;;;;5033420;28;20140;-76
2023/03/20 12:59:20;;;;;;;12.07;7.47;;;;;;;;;;5017046;28;20037;-76
2023/03/20 13:01:57;;;;;;;12.65;7.85;;;;;;;;;;5036041;28;20366;-76
2023/03/20 13:04:26;;;;;;;9.60;6.68;;;;;;;;;;5027950;28;20048;-76
2023/03/20 13:06:54;;;;;;;11.48;6.82;;;;;;;;;;5036890;28;20045;-76
2023/03/20 13:09:39;;;;;;;13.23;7.15;;;;;;;;;;5041891;28;20051;-76
2023/03/20 13:12:24;;;;;;;9.43;6.40;;;;;;;;;;5022255;28;20057;-76
2023/03/20 13:14:59;;;;;;;11.48;7.97;;;;;;;;;;5038885;28;20049;-76
2023/03/20 13:17:33;;;;;;;13.65;9.27;;;;;;;;;;5027592;28;20111;-76
2023/03/20 13:20:15;;;;;;;13.05;8.02;;;;;;;;;;5024356;28;20037;-76
2023/03/20 13:22:56;;;;;;;12.65;8.10;;;;;;;;;;5023493;28;20522;-76
2023/03/20 13:25:44;;;;;;;10.23;7.40;;;;;;;;;;5022739;28;20053;-76
2023/03/20 13:28:16;;;;;;;13.20;7.13;;;;;;;;;;5046059;28;20128;-70
2023/03/20 13:30:56;;;;;;;10.07;7.28;;;;;;;;;;5017844;28;20084;-76
2023/03/20 13:33:41;;;;;;;10.23;6.97;;;;;;;;;;5038005;28;20508;-76
2023/03/20 13:36:07;;;;;;;10.02;6.68;;;;;;;;;;5028377;28;20113;-76
2023/03/20 13:38:35;;;;;;;11.63;6.20;;;;;;;;;;5018458;28;20081;-76
2023/03/20 13:41:02;;;;;;;11.68;7.63;;;;;;;;;;5012482;28;20041;-76
2023/03/20 13:43:34;;;;;;;10.60;6.78;;;;;;;;;;5013431;28;20049;-76
2023/03/20 13:46:07;;;;;;;8.10;6.38;;;;;;;;;;5017049;28;20052;-76
2023/03/20 13:48:33;;;;;;;;;;;;;;;;;;5026611;28;20055;-76
2023/03/20 13:51:05;;;;;;;8.90;6.13;;;;;;;;;;5043657;28;20011;-77
2023/03/20 13:53:39;;;;;;;11.25;5.85;;;;;;;;;;5012766;28;20678;-76
2023/03/20 13:56:24;;;;;;;7.97;5.30;;;;;;;;;;5011433;28;20061;-77
2023/03/20 13:59:00;;;;;;;8.55;6.30;;;;;;;;;;5029127;28;20057;-76
2023/03/20 14:01:29;;;;;;;11.23;8.80;;;;;;;;;;5010393;28;20041;-76
2023/03/20 14:03:55;;;;;;;10.73;6.90;;;;;;;;;;5011365;28;20140;-77
2023/03/20 14:06:28;;;;;;;7.35;6.20;;;;;;;;;;5011300;28;20172;-77
2023/03/20 14:08:54;;;;;;;11.60;6.85;;;;;;;;;;5024960;28;20053;-77
2023/03/20 14:11:20;;;;;;;9.55;6.10;;;;;;;;;;5051196;28;20488;-76
2023/03/20 14:13:57;;;;;;;10.85;7.22;;;;;;;;;;5035526;28;20045;-76
2023/03/20 14:16:27;;;;;;;12.73;8.10;;;;;;;;;;5034066;28;20064;-76
2023/03/20 14:19:07;;;;;;;10.93;8.10;;;;;;;;;;5037276;28;20152;-77
2023/03/20 14:21:34;;;;;;;12.13;7.25;;;;;;;;;;5026509;28;20578;-77
2023/03/20 14:24:03;;;;;;;11.48;7.60;;;;;;;;;;5036434;28;20489;-77
2023/03/20 14:26:36;;;;;;;11.07;7.30;;;;;;;;;;5022110;28;20049;-78
2023/03/20 14:29:02;;;;;;;;;;;;;;;;;;5037000;28;20055;-76
2023/03/20 14:31:40;;;;;;;11.40;8.45;;;;;;;;;;5037808;28;19925;-77
2023/03/20 14:34:12;;;;;;;8.98;6.60;;;;;;;;;;5053154;28;20056;-76
2023/03/20 14:36:59;;;;;;;13.13;7.65;;;;;;;;;;5052264;28;20053;-76
2023/03/20 14:39:48;;;;;;;10.73;6.57;;;;;;;;;;5026643;28;20048;-77
2023/03/20 14:42:17;;;;;;;11.60;6.78;;;;;;;;;;5024152;28;20041;-76
2023/03/20 14:45:03;;;;;;;12.65;8.60;;;;;;;;;;5049662;28;20048;-76